Aviation Digital Data Service (ADDS)

Output produced by METARs form (0419 UTC 19 August 2019)
found at http://www.aviationweather.gov/metar/data/
 
METAR text: ENAN 190350Z 07005KT 9999 SCT018 BKN028 13/12 Q1001
Conditions at: ENAN (ANDOYA/ANDENES(A, NO) observed 0350 UTC 19 August 2019
Temperature: 13.0°C (55°F)
Dewpoint: 12.0°C (54°F) [RH = 94%]
Pressure (altimeter): 29.56 inches Hg (1001.0 mb)
Winds: from the ENE (70 degrees) at 6 MPH (5 knots; 2.6 m/s)
Visibility: 6 or more miles (10+ km)
Ceiling: 2800 feet AGL
Clouds: scattered clouds at 1800 feet AGL
broken clouds at 2800 feet AGL
Weather: no significant weather observed at this time

METAR text: ENAN 190320Z 08005KT 9000 BKN029 13/12 Q1001
Conditions at: ENAN (ANDOYA/ANDENES(A, NO) observed 0320 UTC 19 August 2019
Temperature: 13.0°C (55°F)
Dewpoint: 12.0°C (54°F) [RH = 94%]
Pressure (altimeter): 29.56 inches Hg (1001.0 mb)
Winds: from the E (80 degrees) at 6 MPH (5 knots; 2.6 m/s)
Visibility: 6 miles ( 9 km)
Ceiling: 2900 feet AGL
Clouds: broken clouds at 2900 feet AGL
Weather: no significant weather observed at this time

METAR text: ENAN 190250Z AUTO VRB02KT 9999 OVC027/// 13/12 Q1001
Conditions at: ENAN (ANDOYA/ANDENES(A, NO) observed 0250 UTC 19 August 2019
Temperature: 13.0°C (55°F)
Dewpoint: 12.0°C (54°F) [RH = 94%]
Pressure (altimeter): 29.56 inches Hg (1001.0 mb)
Winds: variable direction winds at 2 MPH (2 knots; 1.0 m/s)
Visibility: 6 or more miles (10+ km)
Ceiling: 2700 feet AGL
Clouds: overcast cloud deck at 2700 feet AGL
Weather: no significant weather observed at this time

METAR text: ENAN 190220Z AUTO 11004KT 8000 FEW007/// OVC031/// 13/12 Q1001
Conditions at: ENAN (ANDOYA/ANDENES(A, NO) observed 0220 UTC 19 August 2019
Temperature: 13.0°C (55°F)
Dewpoint: 12.0°C (54°F) [RH = 94%]
Pressure (altimeter): 29.56 inches Hg (1001.0 mb)
Winds: from the ESE (110 degrees) at 5 MPH (4 knots; 2.1 m/s)
Visibility: 5 miles ( 8 km)
Ceiling: 3100 feet AGL
Clouds: few clouds at 700 feet AGL
overcast cloud deck at 3100 feet AGL
Weather: no significant weather observed at this time

METAR text: ENAN 190150Z AUTO 11004KT 9999 OVC024/// 13/12 Q1002
Conditions at: ENAN (ANDOYA/ANDENES(A, NO) observed 0150 UTC 19 August 2019
Temperature: 13.0°C (55°F)
Dewpoint: 12.0°C (54°F) [RH = 94%]
Pressure (altimeter): 29.59 inches Hg (1002.0 mb)
Winds: from the ESE (110 degrees) at 5 MPH (4 knots; 2.1 m/s)
Visibility: 6 or more miles (10+ km)
Ceiling: 2400 feet AGL
Clouds: overcast cloud deck at 2400 feet AGL
Weather: no significant weather observed at this time

METAR text: ENAN 190120Z AUTO 09004KT 9999 FEW010/// OVC024/// 13/12 Q1001
Conditions at: ENAN (ANDOYA/ANDENES(A, NO) observed 0120 UTC 19 August 2019
Temperature: 13.0°C (55°F)
Dewpoint: 12.0°C (54°F) [RH = 94%]
Pressure (altimeter): 29.56 inches Hg (1001.0 mb)
Winds: from the E (90 degrees) at 5 MPH (4 knots; 2.1 m/s)
Visibility: 6 or more miles (10+ km)
Ceiling: 2400 feet AGL
Clouds: few clouds at 1000 feet AGL
overcast cloud deck at 2400 feet AGL
Weather: no significant weather observed at this time

METAR text: ENAN 190050Z AUTO 06002KT 9999 BKN011/// OVC043/// 13/12 Q1002
Conditions at: ENAN (ANDOYA/ANDENES(A, NO) observed 0050 UTC 19 August 2019
Temperature: 13.0°C (55°F)
Dewpoint: 12.0°C (54°F) [RH = 94%]
Pressure (altimeter): 29.59 inches Hg (1002.0 mb)
Winds: from the ENE (60 degrees) at 2 MPH (2 knots; 1.0 m/s)
Visibility: 6 or more miles (10+ km)
Ceiling: 1100 feet AGL
Clouds: broken clouds at 1100 feet AGL
overcast cloud deck at 4300 feet AGL
Weather: no significant weather observed at this time

METAR text: ENAN 190020Z AUTO VRB01KT 9999 FEW014/// OVC023/// 13/12 Q1002
Conditions at: ENAN (ANDOYA/ANDENES(A, NO) observed 0020 UTC 19 August 2019
Temperature: 13.0°C (55°F)
Dewpoint: 12.0°C (54°F) [RH = 94%]
Pressure (altimeter): 29.59 inches Hg (1002.0 mb)
Winds: variable direction winds at 1 MPH (1 knots; 0.5 m/s)
Visibility: 6 or more miles (10+ km)
Ceiling: 2300 feet AGL
Clouds: few clouds at 1400 feet AGL
overcast cloud deck at 2300 feet AGL
Weather: no significant weather observed at this time

METAR text: ENAN 182350Z AUTO VRB03KT 9999 FEW011/// OVC021/// 13/12 Q1002
Conditions at: ENAN (ANDOYA/ANDENES(A, NO) observed 2350 UTC 18 August 2019
Temperature: 13.0°C (55°F)
Dewpoint: 12.0°C (54°F) [RH = 94%]
Pressure (altimeter): 29.59 inches Hg (1002.0 mb)
Winds: variable direction winds at 3 MPH (3 knots; 1.5 m/s)
Visibility: 6 or more miles (10+ km)
Ceiling: 2100 feet AGL
Clouds: few clouds at 1100 feet AGL
overcast cloud deck at 2100 feet AGL
Weather: no significant weather observed at this time

METAR text: ENAN 182320Z 09004KT 9999 BKN014 13/12 Q1002
Conditions at: ENAN (ANDOYA/ANDENES(A, NO) observed 2320 UTC 18 August 2019
Temperature: 13.0°C (55°F)
Dewpoint: 12.0°C (54°F) [RH = 94%]
Pressure (altimeter): 29.59 inches Hg (1002.0 mb)
Winds: from the E (90 degrees) at 5 MPH (4 knots; 2.1 m/s)
Visibility: 6 or more miles (10+ km)
Ceiling: 1400 feet AGL
Clouds: broken clouds at 1400 feet AGL
Weather: no significant weather observed at this time

METAR text: ENAN 182250Z 12003KT 9999 SCT035 BKN055 13/11 Q1002
Conditions at: ENAN (ANDOYA/ANDENES(A, NO) observed 2250 UTC 18 August 2019
Temperature: 13.0°C (55°F)
Dewpoint: 11.0°C (52°F) [RH = 88%]
Pressure (altimeter): 29.59 inches Hg (1002.0 mb)
Winds: from the ESE (120 degrees) at 3 MPH (3 knots; 1.5 m/s)
Visibility: 6 or more miles (10+ km)
Ceiling: 5500 feet AGL
Clouds: scattered clouds at 3500 feet AGL
broken clouds at 5500 feet AGL
Weather: no significant weather observed at this time

METAR text: ENAN 182220Z VRB02KT 9999 -DZ BKN028 13/11 Q1002
Conditions at: ENAN (ANDOYA/ANDENES(A, NO) observed 2220 UTC 18 August 2019
Temperature: 13.0°C (55°F)
Dewpoint: 11.0°C (52°F) [RH = 88%]
Pressure (altimeter): 29.59 inches Hg (1002.0 mb)
Winds: variable direction winds at 2 MPH (2 knots; 1.0 m/s)
Visibility: 6 or more miles (10+ km)
Ceiling: 2800 feet AGL
Clouds: broken clouds at 2800 feet AGL
Weather: -DZ  (light drizzle)

METAR text: ENAN 182150Z 07004KT 9999 BKN025 13/11 Q1001
Conditions at: ENAN (ANDOYA/ANDENES(A, NO) observed 2150 UTC 18 August 2019
Temperature: 13.0°C (55°F)
Dewpoint: 11.0°C (52°F) [RH = 88%]
Pressure (altimeter): 29.56 inches Hg (1001.0 mb)
Winds: from the ENE (70 degrees) at 5 MPH (4 knots; 2.1 m/s)
Visibility: 6 or more miles (10+ km)
Ceiling: 2500 feet AGL
Clouds: broken clouds at 2500 feet AGL
Weather: no significant weather observed at this time

METAR text: ENAN 182120Z VRB02KT 9999 BKN027 14/12 Q1001
Conditions at: ENAN (ANDOYA/ANDENES(A, NO) observed 2120 UTC 18 August 2019
Temperature: 14.0°C (57°F)
Dewpoint: 12.0°C (54°F) [RH = 88%]
Pressure (altimeter): 29.56 inches Hg (1001.0 mb)
Winds: variable direction winds at 2 MPH (2 knots; 1.0 m/s)
Visibility: 6 or more miles (10+ km)
Ceiling: 2700 feet AGL
Clouds: broken clouds at 2700 feet AGL
Weather: no significant weather observed at this time

METAR text: ENAN 182050Z 16004KT 130V230 9999 SCT025 BKN084 14/12 Q1001
Conditions at: ENAN (ANDOYA/ANDENES(A, NO) observed 2050 UTC 18 August 2019
Temperature: 14.0°C (57°F)
Dewpoint: 12.0°C (54°F) [RH = 88%]
Pressure (altimeter): 29.56 inches Hg (1001.0 mb)
Winds: from the SSE (160 degrees) at 5 MPH (4 knots; 2.1 m/s)
Visibility: 6 or more miles (10+ km)
Ceiling: 8400 feet AGL
Clouds: scattered clouds at 2500 feet AGL
broken clouds at 8400 feet AGL
Weather: no significant weather observed at this time

METAR text: ENAN 182020Z 31005KT 260V350 9999 SCT023 BKN086 14/12 Q1001
Conditions at: ENAN (ANDOYA/ANDENES(A, NO) observed 2020 UTC 18 August 2019
Temperature: 14.0°C (57°F)
Dewpoint: 12.0°C (54°F) [RH = 88%]
Pressure (altimeter): 29.56 inches Hg (1001.0 mb)
Winds: from the NW (310 degrees) at 6 MPH (5 knots; 2.6 m/s)
Visibility: 6 or more miles (10+ km)
Ceiling: 8600 feet AGL
Clouds: scattered clouds at 2300 feet AGL
broken clouds at 8600 feet AGL
Weather: no significant weather observed at this time

METAR text: ENAN 181950Z 28004KT 9999 FEW015 SCT028 14/12 Q1001
Conditions at: ENAN (ANDOYA/ANDENES(A, NO) observed 1950 UTC 18 August 2019
Temperature: 14.0°C (57°F)
Dewpoint: 12.0°C (54°F) [RH = 88%]
Pressure (altimeter): 29.56 inches Hg (1001.0 mb)
Winds: from the W (280 degrees) at 5 MPH (4 knots; 2.1 m/s)
Visibility: 6 or more miles (10+ km)
Ceiling: at least 12,000 feet AGL
Clouds: few clouds at 1500 feet AGL
scattered clouds at 2800 feet AGL
Weather: no significant weather observed at this time

METAR text: ENAN 181920Z 26008KT CAVOK 14/12 Q1001
Conditions at: ENAN (ANDOYA/ANDENES(A, NO) observed 1920 UTC 18 August 2019
Temperature: 14.0°C (57°F)
Dewpoint: 12.0°C (54°F) [RH = 88%]
Pressure (altimeter): 29.56 inches Hg (1001.0 mb)
Winds: from the W (260 degrees) at 9 MPH (8 knots; 4.1 m/s)
Visibility: 6 or more miles (10+ km)
Ceiling: ceiling and visibility are OK
Clouds: unknown
Weather: no significant weather observed at this time

METAR text: ENAN 181850Z 27008KT CAVOK 14/12 Q1001 RERA
Conditions at: ENAN (ANDOYA/ANDENES(A, NO) observed 1850 UTC 18 August 2019
Temperature: 14.0°C (57°F)
Dewpoint: 12.0°C (54°F) [RH = 88%]
Pressure (altimeter): 29.56 inches Hg (1001.0 mb)
Winds: from the W (270 degrees) at 9 MPH (8 knots; 4.1 m/s)
Visibility: 6 or more miles (10+ km)
Ceiling: ceiling and visibility are OK
Clouds: unknown
Weather: no significant weather observed at this time

METAR text: ENAN 181820Z 27014KT CAVOK 15/12 Q1000 RERA
Conditions at: ENAN (ANDOYA/ANDENES(A, NO) observed 1820 UTC 18 August 2019
Temperature: 15.0°C (59°F)
Dewpoint: 12.0°C (54°F) [RH = 82%]
Pressure (altimeter): 29.53 inches Hg (1000.0 mb)
Winds: from the W (270 degrees) at 16 MPH (14 knots; 7.2 m/s)
Visibility: 6 or more miles (10+ km)
Ceiling: ceiling and visibility are OK
Clouds: unknown
Weather: no significant weather observed at this time

METAR text: ENAN 181750Z 24011KT 9999 VCTS FEW047CB BKN086 15/13 Q1000 RESHRA
Conditions at: ENAN (ANDOYA/ANDENES(A, NO) observed 1750 UTC 18 August 2019
Temperature: 15.0°C (59°F)
Dewpoint: 13.0°C (55°F) [RH = 88%]
Pressure (altimeter): 29.53 inches Hg (1000.0 mb)
Winds: from the WSW (240 degrees) at 13 MPH (11 knots; 5.7 m/s)
Visibility: 6 or more miles (10+ km)
Ceiling: 8600 feet AGL
Clouds: few clouds at 4700 feet AGL
broken clouds at 8600 feet AGL
Weather: VCTS  (thunderstorm in vicinity)

METAR text: ENAN 181720Z 23010KT 9999 RA VCTS BKN066CB OVC076 16/14 Q0999 RESHRA
Conditions at: ENAN (ANDOYA/ANDENES(A, NO) observed 1720 UTC 18 August 2019
Temperature: 16.0°C (61°F)
Dewpoint: 14.0°C (57°F) [RH = 88%]
Pressure (altimeter): 29.50 inches Hg (999.0 mb)
Winds: from the SW (230 degrees) at 12 MPH (10 knots; 5.1 m/s)
Visibility: 6 or more miles (10+ km)
Ceiling: 6600 feet AGL
Clouds: broken clouds at 6600 feet AGL
overcast cloud deck at 7600 feet AGL
Weather: RA VCTS  (moderate rain, thunderstorm in vicinity)

METAR text: ENAN 181650Z VRB03KT 9999 -RA VCTS BKN061CB OVC082 15/12 Q0999
Conditions at: ENAN (ANDOYA/ANDENES(A, NO) observed 1650 UTC 18 August 2019
Temperature: 15.0°C (59°F)
Dewpoint: 12.0°C (54°F) [RH = 82%]
Pressure (altimeter): 29.50 inches Hg (999.0 mb)
Winds: variable direction winds at 3 MPH (3 knots; 1.5 m/s)
Visibility: 6 or more miles (10+ km)
Ceiling: 6100 feet AGL
Clouds: broken clouds at 6100 feet AGL
overcast cloud deck at 8200 feet AGL
Weather: -RA VCTS  (light rain, thunderstorm in vicinity)

METAR text: ENAN 181620Z 04004KT CAVOK 15/12 Q0999
Conditions at: ENAN (ANDOYA/ANDENES(A, NO) observed 1620 UTC 18 August 2019
Temperature: 15.0°C (59°F)
Dewpoint: 12.0°C (54°F) [RH = 82%]
Pressure (altimeter): 29.50 inches Hg (999.0 mb)
Winds: from the NE (40 degrees) at 5 MPH (4 knots; 2.1 m/s)
Visibility: 6 or more miles (10+ km)
Ceiling: ceiling and visibility are OK
Clouds: unknown
Weather: no significant weather observed at this time

METAR text: ENAN 181550Z 08005KT CAVOK 16/12 Q0999
Conditions at: ENAN (ANDOYA/ANDENES(A, NO) observed 1550 UTC 18 August 2019
Temperature: 16.0°C (61°F)
Dewpoint: 12.0°C (54°F) [RH = 77%]
Pressure (altimeter): 29.50 inches Hg (999.0 mb)
Winds: from the E (80 degrees) at 6 MPH (5 knots; 2.6 m/s)
Visibility: 6 or more miles (10+ km)
Ceiling: ceiling and visibility are OK
Clouds: unknown
Weather: no significant weather observed at this time

METAR text: ENAN 181520Z 06004KT CAVOK 16/12 Q0999
Conditions at: ENAN (ANDOYA/ANDENES(A, NO) observed 1520 UTC 18 August 2019
Temperature: 16.0°C (61°F)
Dewpoint: 12.0°C (54°F) [RH = 77%]
Pressure (altimeter): 29.50 inches Hg (999.0 mb)
Winds: from the ENE (60 degrees) at 5 MPH (4 knots; 2.1 m/s)
Visibility: 6 or more miles (10+ km)
Ceiling: ceiling and visibility are OK
Clouds: unknown
Weather: no significant weather observed at this time

METAR text: ENAN 181450Z 07005KT 030V100 CAVOK 16/12 Q0999
Conditions at: ENAN (ANDOYA/ANDENES(A, NO) observed 1450 UTC 18 August 2019
Temperature: 16.0°C (61°F)
Dewpoint: 12.0°C (54°F) [RH = 77%]
Pressure (altimeter): 29.50 inches Hg (999.0 mb)
Winds: from the ENE (70 degrees) at 6 MPH (5 knots; 2.6 m/s)
Visibility: 6 or more miles (10+ km)
Ceiling: ceiling and visibility are OK
Clouds: unknown
Weather: no significant weather observed at this time

METAR text: ENAN 181420Z 06005KT CAVOK 16/12 Q0999
Conditions at: ENAN (ANDOYA/ANDENES(A, NO) observed 1420 UTC 18 August 2019
Temperature: 16.0°C (61°F)
Dewpoint: 12.0°C (54°F) [RH = 77%]
Pressure (altimeter): 29.50 inches Hg (999.0 mb)
Winds: from the ENE (60 degrees) at 6 MPH (5 knots; 2.6 m/s)
Visibility: 6 or more miles (10+ km)
Ceiling: ceiling and visibility are OK
Clouds: unknown
Weather: no significant weather observed at this time

METAR text: ENAN 181350Z VRB03KT CAVOK 17/12 Q0999
Conditions at: ENAN (ANDOYA/ANDENES(A, NO) observed 1350 UTC 18 August 2019
Temperature: 17.0°C (63°F)
Dewpoint: 12.0°C (54°F) [RH = 72%]
Pressure (altimeter): 29.50 inches Hg (999.0 mb)
Winds: variable direction winds at 3 MPH (3 knots; 1.5 m/s)
Visibility: 6 or more miles (10+ km)
Ceiling: ceiling and visibility are OK
Clouds: unknown
Weather: no significant weather observed at this time

METAR text: ENAN 181320Z VRB02KT CAVOK 17/13 Q0999 RERA
Conditions at: ENAN (ANDOYA/ANDENES(A, NO) observed 1320 UTC 18 August 2019
Temperature: 17.0°C (63°F)
Dewpoint: 13.0°C (55°F) [RH = 77%]
Pressure (altimeter): 29.50 inches Hg (999.0 mb)
Winds: variable direction winds at 2 MPH (2 knots; 1.0 m/s)
Visibility: 6 or more miles (10+ km)
Ceiling: ceiling and visibility are OK
Clouds: unknown
Weather: no significant weather observed at this time

METAR text: ENAN 181250Z 09005KT CAVOK 17/12 Q0999
Conditions at: ENAN (ANDOYA/ANDENES(A, NO) observed 1250 UTC 18 August 2019
Temperature: 17.0°C (63°F)
Dewpoint: 12.0°C (54°F) [RH = 72%]
Pressure (altimeter): 29.50 inches Hg (999.0 mb)
Winds: from the E (90 degrees) at 6 MPH (5 knots; 2.6 m/s)
Visibility: 6 or more miles (10+ km)
Ceiling: ceiling and visibility are OK
Clouds: unknown
Weather: no significant weather observed at this time

METAR text: ENAN 181220Z VRB02KT 9999 FEW045 BKN066 17/13 Q0999
Conditions at: ENAN (ANDOYA/ANDENES(A, NO) observed 1220 UTC 18 August 2019
Temperature: 17.0°C (63°F)
Dewpoint: 13.0°C (55°F) [RH = 77%]
Pressure (altimeter): 29.50 inches Hg (999.0 mb)
Winds: variable direction winds at 2 MPH (2 knots; 1.0 m/s)
Visibility: 6 or more miles (10+ km)
Ceiling: 6600 feet AGL
Clouds: few clouds at 4500 feet AGL
broken clouds at 6600 feet AGL
Weather: no significant weather observed at this time

METAR text: ENAN 181150Z 14003KT 9999 FEW045 BKN059 17/13 Q0999
Conditions at: ENAN (ANDOYA/ANDENES(A, NO) observed 1150 UTC 18 August 2019
Temperature: 17.0°C (63°F)
Dewpoint: 13.0°C (55°F) [RH = 77%]
Pressure (altimeter): 29.50 inches Hg (999.0 mb)
Winds: from the SE (140 degrees) at 3 MPH (3 knots; 1.5 m/s)
Visibility: 6 or more miles (10+ km)
Ceiling: 5900 feet AGL
Clouds: few clouds at 4500 feet AGL
broken clouds at 5900 feet AGL
Weather: no significant weather observed at this time

METAR text: ENAN 181120Z 12004KT 080V170 9999 FEW045 BKN064 17/13 Q0999
Conditions at: ENAN (ANDOYA/ANDENES(A, NO) observed 1120 UTC 18 August 2019
Temperature: 17.0°C (63°F)
Dewpoint: 13.0°C (55°F) [RH = 77%]
Pressure (altimeter): 29.50 inches Hg (999.0 mb)
Winds: from the ESE (120 degrees) at 5 MPH (4 knots; 2.1 m/s)
Visibility: 6 or more miles (10+ km)
Ceiling: 6400 feet AGL
Clouds: few clouds at 4500 feet AGL
broken clouds at 6400 feet AGL
Weather: no significant weather observed at this time

METAR text: ENAN 181050Z 11004KT 9999 FEW045 BKN068 17/13 Q0999
Conditions at: ENAN (ANDOYA/ANDENES(A, NO) observed 1050 UTC 18 August 2019
Temperature: 17.0°C (63°F)
Dewpoint: 13.0°C (55°F) [RH = 77%]
Pressure (altimeter): 29.50 inches Hg (999.0 mb)
Winds: from the ESE (110 degrees) at 5 MPH (4 knots; 2.1 m/s)
Visibility: 6 or more miles (10+ km)
Ceiling: 6800 feet AGL
Clouds: few clouds at 4500 feet AGL
broken clouds at 6800 feet AGL
Weather: no significant weather observed at this time

METAR text: ENAN 181020Z 16006KT 9999 SCT045 BKN088 17/13 Q0998
Conditions at: ENAN (ANDOYA/ANDENES(A, NO) observed 1020 UTC 18 August 2019
Temperature: 17.0°C (63°F)
Dewpoint: 13.0°C (55°F) [RH = 77%]
Pressure (altimeter): 29.47 inches Hg (998.0 mb)
Winds: from the SSE (160 degrees) at 7 MPH (6 knots; 3.1 m/s)
Visibility: 6 or more miles (10+ km)
Ceiling: 8800 feet AGL
Clouds: scattered clouds at 4500 feet AGL
broken clouds at 8800 feet AGL
Weather: no significant weather observed at this time

METAR text: ENAN 180950Z 16008KT 9999 SCT045 BKN088 16/13 Q0998
Conditions at: ENAN (ANDOYA/ANDENES(A, NO) observed 0950 UTC 18 August 2019
Temperature: 16.0°C (61°F)
Dewpoint: 13.0°C (55°F) [RH = 82%]
Pressure (altimeter): 29.47 inches Hg (998.0 mb)
Winds: from the SSE (160 degrees) at 9 MPH (8 knots; 4.1 m/s)
Visibility: 6 or more miles (10+ km)
Ceiling: 8800 feet AGL
Clouds: scattered clouds at 4500 feet AGL
broken clouds at 8800 feet AGL
Weather: no significant weather observed at this time

METAR text: ENAN 180920Z 16008KT 9999 BKN042 16/13 Q0998
Conditions at: ENAN (ANDOYA/ANDENES(A, NO) observed 0920 UTC 18 August 2019
Temperature: 16.0°C (61°F)
Dewpoint: 13.0°C (55°F) [RH = 82%]
Pressure (altimeter): 29.47 inches Hg (998.0 mb)
Winds: from the SSE (160 degrees) at 9 MPH (8 knots; 4.1 m/s)
Visibility: 6 or more miles (10+ km)
Ceiling: 4200 feet AGL
Clouds: broken clouds at 4200 feet AGL
Weather: no significant weather observed at this time

METAR text: ENAN 180850Z 17009KT 9999 BKN047 16/13 Q0998
Conditions at: ENAN (ANDOYA/ANDENES(A, NO) observed 0850 UTC 18 August 2019
Temperature: 16.0°C (61°F)
Dewpoint: 13.0°C (55°F) [RH = 82%]
Pressure (altimeter): 29.47 inches Hg (998.0 mb)
Winds: from the S (170 degrees) at 10 MPH (9 knots; 4.6 m/s)
Visibility: 6 or more miles (10+ km)
Ceiling: 4700 feet AGL
Clouds: broken clouds at 4700 feet AGL
Weather: no significant weather observed at this time

METAR text: ENAN 180820Z 18009KT 9999 BKN049 16/13 Q0998
Conditions at: ENAN (ANDOYA/ANDENES(A, NO) observed 0820 UTC 18 August 2019
Temperature: 16.0°C (61°F)
Dewpoint: 13.0°C (55°F) [RH = 82%]
Pressure (altimeter): 29.47 inches Hg (998.0 mb)
Winds: from the S (180 degrees) at 10 MPH (9 knots; 4.6 m/s)
Visibility: 6 or more miles (10+ km)
Ceiling: 4900 feet AGL
Clouds: broken clouds at 4900 feet AGL
Weather: no significant weather observed at this time

METAR text: ENAN 180750Z 17009KT CAVOK 16/13 Q0998
Conditions at: ENAN (ANDOYA/ANDENES(A, NO) observed 0750 UTC 18 August 2019
Temperature: 16.0°C (61°F)
Dewpoint: 13.0°C (55°F) [RH = 82%]
Pressure (altimeter): 29.47 inches Hg (998.0 mb)
Winds: from the S (170 degrees) at 10 MPH (9 knots; 4.6 m/s)
Visibility: 6 or more miles (10+ km)
Ceiling: ceiling and visibility are OK
Clouds: unknown
Weather: no significant weather observed at this time

METAR text: ENAN 180720Z AUTO 17007KT 9999 OVC090/// 15/13 Q0998
Conditions at: ENAN (ANDOYA/ANDENES(A, NO) observed 0720 UTC 18 August 2019
Temperature: 15.0°C (59°F)
Dewpoint: 13.0°C (55°F) [RH = 88%]
Pressure (altimeter): 29.47 inches Hg (998.0 mb)
Winds: from the S (170 degrees) at 8 MPH (7 knots; 3.6 m/s)
Visibility: 6 or more miles (10+ km)
Ceiling: 9000 feet AGL
Clouds: overcast cloud deck at 9000 feet AGL
Weather: no significant weather observed at this time

METAR text: ENAN 180650Z AUTO 17005KT 9999 OVC080/// 15/13 Q0997
Conditions at: ENAN (ANDOYA/ANDENES(A, NO) observed 0650 UTC 18 August 2019
Temperature: 15.0°C (59°F)
Dewpoint: 13.0°C (55°F) [RH = 88%]
Pressure (altimeter): 29.44 inches Hg (997.0 mb)
Winds: from the S (170 degrees) at 6 MPH (5 knots; 2.6 m/s)
Visibility: 6 or more miles (10+ km)
Ceiling: 8000 feet AGL
Clouds: overcast cloud deck at 8000 feet AGL
Weather: no significant weather observed at this time

METAR text: ENAN 180620Z AUTO 19003KT 9999 OVC066/// 15/13 Q0997
Conditions at: ENAN (ANDOYA/ANDENES(A, NO) observed 0620 UTC 18 August 2019
Temperature: 15.0°C (59°F)
Dewpoint: 13.0°C (55°F) [RH = 88%]
Pressure (altimeter): 29.44 inches Hg (997.0 mb)
Winds: from the S (190 degrees) at 3 MPH (3 knots; 1.5 m/s)
Visibility: 6 or more miles (10+ km)
Ceiling: 6600 feet AGL
Clouds: overcast cloud deck at 6600 feet AGL
Weather: no significant weather observed at this time

METAR text: ENAN 180550Z AUTO 19004KT 9999 OVC068/// 15/13 Q0997 RERA
Conditions at: ENAN (ANDOYA/ANDENES(A, NO) observed 0550 UTC 18 August 2019
Temperature: 15.0°C (59°F)
Dewpoint: 13.0°C (55°F) [RH = 88%]
Pressure (altimeter): 29.44 inches Hg (997.0 mb)
Winds: from the S (190 degrees) at 5 MPH (4 knots; 2.1 m/s)
Visibility: 6 or more miles (10+ km)
Ceiling: 6800 feet AGL
Clouds: overcast cloud deck at 6800 feet AGL
Weather: no significant weather observed at this time

METAR text: ENAN 180520Z AUTO 17005KT 9999 OVC074/// 14/13 Q0997 RERA
Conditions at: ENAN (ANDOYA/ANDENES(A, NO) observed 0520 UTC 18 August 2019
Temperature: 14.0°C (57°F)
Dewpoint: 13.0°C (55°F) [RH = 94%]
Pressure (altimeter): 29.44 inches Hg (997.0 mb)
Winds: from the S (170 degrees) at 6 MPH (5 knots; 2.6 m/s)
Visibility: 6 or more miles (10+ km)
Ceiling: 7400 feet AGL
Clouds: overcast cloud deck at 7400 feet AGL
Weather: no significant weather observed at this time

METAR text: ENAN 180450Z AUTO 17006KT 9999 BKN072/// 14/13 Q0997
Conditions at: ENAN (ANDOYA/ANDENES(A, NO) observed 0450 UTC 18 August 2019
Temperature: 14.0°C (57°F)
Dewpoint: 13.0°C (55°F) [RH = 94%]
Pressure (altimeter): 29.44 inches Hg (997.0 mb)
Winds: from the S (170 degrees) at 7 MPH (6 knots; 3.1 m/s)
Visibility: 6 or more miles (10+ km)
Ceiling: 7200 feet AGL
Clouds: broken clouds at 7200 feet AGL
Weather: no significant weather observed at this time

METAR text: ENAN 180420Z AUTO 18004KT 9999 DZ BKN070/// OVC088/// 14/13 Q0997
Conditions at: ENAN (ANDOYA/ANDENES(A, NO) observed 0420 UTC 18 August 2019
Temperature: 14.0°C (57°F)
Dewpoint: 13.0°C (55°F) [RH = 94%]
Pressure (altimeter): 29.44 inches Hg (997.0 mb)
Winds: from the S (180 degrees) at 5 MPH (4 knots; 2.1 m/s)
Visibility: 6 or more miles (10+ km)
Ceiling: 7000 feet AGL
Clouds: broken clouds at 7000 feet AGL
overcast cloud deck at 8800 feet AGL
Weather: DZ  (moderate drizzle)

METAR text: ENAN 180350Z AUTO 19006KT 9999 DZ BKN072/// BKN092/// 14/12 Q0997
Conditions at: ENAN (ANDOYA/ANDENES(A, NO) observed 0350 UTC 18 August 2019
Temperature: 14.0°C (57°F)
Dewpoint: 12.0°C (54°F) [RH = 88%]
Pressure (altimeter): 29.44 inches Hg (997.0 mb)
Winds: from the S (190 degrees) at 7 MPH (6 knots; 3.1 m/s)
Visibility: 6 or more miles (10+ km)
Ceiling: 7200 feet AGL
Clouds: broken clouds at 7200 feet AGL
broken clouds at 9200 feet AGL
Weather: DZ  (moderate drizzle)

METAR text: ENAN 180320Z AUTO 19007KT 9999 -DZ SCT074/// OVC092/// 13/12 Q0997
Conditions at: ENAN (ANDOYA/ANDENES(A, NO) observed 0320 UTC 18 August 2019
Temperature: 13.0°C (55°F)
Dewpoint: 12.0°C (54°F) [RH = 94%]
Pressure (altimeter): 29.44 inches Hg (997.0 mb)
Winds: from the S (190 degrees) at 8 MPH (7 knots; 3.6 m/s)
Visibility: 6 or more miles (10+ km)
Ceiling: 9200 feet AGL
Clouds: scattered clouds at 7400 feet AGL
overcast cloud deck at 9200 feet AGL
Weather: -DZ  (light drizzle)

METAR text: ENAN 180250Z AUTO 19006KT 9999 DZ BKN070/// OVC086/// 13/12 Q0997
Conditions at: ENAN (ANDOYA/ANDENES(A, NO) observed 0250 UTC 18 August 2019
Temperature: 13.0°C (55°F)
Dewpoint: 12.0°C (54°F) [RH = 94%]
Pressure (altimeter): 29.44 inches Hg (997.0 mb)
Winds: from the S (190 degrees) at 7 MPH (6 knots; 3.1 m/s)
Visibility: 6 or more miles (10+ km)
Ceiling: 7000 feet AGL
Clouds: broken clouds at 7000 feet AGL
overcast cloud deck at 8600 feet AGL
Weather: DZ  (moderate drizzle)

METAR text: ENAN 180220Z AUTO 18010KT 9999 DZ OVC070/// 14/12 Q0997
Conditions at: ENAN (ANDOYA/ANDENES(A, NO) observed 0220 UTC 18 August 2019
Temperature: 14.0°C (57°F)
Dewpoint: 12.0°C (54°F) [RH = 88%]
Pressure (altimeter): 29.44 inches Hg (997.0 mb)
Winds: from the S (180 degrees) at 12 MPH (10 knots; 5.1 m/s)
Visibility: 6 or more miles (10+ km)
Ceiling: 7000 feet AGL
Clouds: overcast cloud deck at 7000 feet AGL
Weather: DZ  (moderate drizzle)

METAR text: ENAN 180150Z AUTO 18010KT 9999 DZ OVC072/// 14/12 Q0998
Conditions at: ENAN (ANDOYA/ANDENES(A, NO) observed 0150 UTC 18 August 2019
Temperature: 14.0°C (57°F)
Dewpoint: 12.0°C (54°F) [RH = 88%]
Pressure (altimeter): 29.47 inches Hg (998.0 mb)
Winds: from the S (180 degrees) at 12 MPH (10 knots; 5.1 m/s)
Visibility: 6 or more miles (10+ km)
Ceiling: 7200 feet AGL
Clouds: overcast cloud deck at 7200 feet AGL
Weather: DZ  (moderate drizzle)

METAR text: ENAN 180120Z AUTO 16008KT 9999 -DZ BKN074/// 14/12 Q0998
Conditions at: ENAN (ANDOYA/ANDENES(A, NO) observed 0120 UTC 18 August 2019
Temperature: 14.0°C (57°F)
Dewpoint: 12.0°C (54°F) [RH = 88%]
Pressure (altimeter): 29.47 inches Hg (998.0 mb)
Winds: from the SSE (160 degrees) at 9 MPH (8 knots; 4.1 m/s)
Visibility: 6 or more miles (10+ km)
Ceiling: 7400 feet AGL
Clouds: broken clouds at 7400 feet AGL
Weather: -DZ  (light drizzle)

METAR text: ENAN 180050Z AUTO 16005KT 9999 -DZ SCT062/// 13/11 Q0998
Conditions at: ENAN (ANDOYA/ANDENES(A, NO) observed 0050 UTC 18 August 2019
Temperature: 13.0°C (55°F)
Dewpoint: 11.0°C (52°F) [RH = 88%]
Pressure (altimeter): 29.47 inches Hg (998.0 mb)
Winds: from the SSE (160 degrees) at 6 MPH (5 knots; 2.6 m/s)
Visibility: 6 or more miles (10+ km)
Ceiling: at least 12,000 feet AGL
Clouds: scattered clouds at 6200 feet AGL
Weather: -DZ  (light drizzle)

METAR text: ENAN 180020Z AUTO 17004KT 9999 -DZ FEW055/// SCT086/// 13/11 Q0998
Conditions at: ENAN (ANDOYA/ANDENES(A, NO) observed 0020 UTC 18 August 2019
Temperature: 13.0°C (55°F)
Dewpoint: 11.0°C (52°F) [RH = 88%]
Pressure (altimeter): 29.47 inches Hg (998.0 mb)
Winds: from the S (170 degrees) at 5 MPH (4 knots; 2.1 m/s)
Visibility: 6 or more miles (10+ km)
Ceiling: at least 12,000 feet AGL
Clouds: few clouds at 5500 feet AGL
scattered clouds at 8600 feet AGL
Weather: -DZ  (light drizzle)

METAR text: ENAN 172350Z AUTO 15005KT 9999 -RA FEW049/// SCT064/// 13/12 Q0998
Conditions at: ENAN (ANDOYA/ANDENES(A, NO) observed 2350 UTC 17 August 2019
Temperature: 13.0°C (55°F)
Dewpoint: 12.0°C (54°F) [RH = 94%]
Pressure (altimeter): 29.47 inches Hg (998.0 mb)
Winds: from the SSE (150 degrees) at 6 MPH (5 knots; 2.6 m/s)
Visibility: 6 or more miles (10+ km)
Ceiling: at least 12,000 feet AGL
Clouds: few clouds at 4900 feet AGL
scattered clouds at 6400 feet AGL
Weather: -RA  (light rain)

METAR text: ENAN 172320Z AUTO 17005KT 9999 -RA OVC074/// 14/12 Q0998
Conditions at: ENAN (ANDOYA/ANDENES(A, NO) observed 2320 UTC 17 August 2019
Temperature: 14.0°C (57°F)
Dewpoint: 12.0°C (54°F) [RH = 88%]
Pressure (altimeter): 29.47 inches Hg (998.0 mb)
Winds: from the S (170 degrees) at 6 MPH (5 knots; 2.6 m/s)
Visibility: 6 or more miles (10+ km)
Ceiling: 7400 feet AGL
Clouds: overcast cloud deck at 7400 feet AGL
Weather: -RA  (light rain)

METAR text: ENAN 172250Z AUTO 19007KT 9999 -RA OVC070/// 13/11 Q0998
Conditions at: ENAN (ANDOYA/ANDENES(A, NO) observed 2250 UTC 17 August 2019
Temperature: 13.0°C (55°F)
Dewpoint: 11.0°C (52°F) [RH = 88%]
Pressure (altimeter): 29.47 inches Hg (998.0 mb)
Winds: from the S (190 degrees) at 8 MPH (7 knots; 3.6 m/s)
Visibility: 6 or more miles (10+ km)
Ceiling: 7000 feet AGL
Clouds: overcast cloud deck at 7000 feet AGL
Weather: -RA  (light rain)

METAR text: ENAN 172220Z 19005KT 9999 -RA FEW053 SCT072 13/10 Q0998 RERA
Conditions at: ENAN (ANDOYA/ANDENES(A, NO) observed 2220 UTC 17 August 2019
Temperature: 13.0°C (55°F)
Dewpoint: 10.0°C (50°F) [RH = 82%]
Pressure (altimeter): 29.47 inches Hg (998.0 mb)
Winds: from the S (190 degrees) at 6 MPH (5 knots; 2.6 m/s)
Visibility: 6 or more miles (10+ km)
Ceiling: at least 12,000 feet AGL
Clouds: few clouds at 5300 feet AGL
scattered clouds at 7200 feet AGL
Weather: -RA  (light rain)

METAR text: ENAN 172150Z VRB03KT 9999 -DZ BKN064 12/10 Q0998
Conditions at: ENAN (ANDOYA/ANDENES(A, NO) observed 2150 UTC 17 August 2019
Temperature: 12.0°C (54°F)
Dewpoint: 10.0°C (50°F) [RH = 88%]
Pressure (altimeter): 29.47 inches Hg (998.0 mb)
Winds: variable direction winds at 3 MPH (3 knots; 1.5 m/s)
Visibility: 6 or more miles (10+ km)
Ceiling: 6400 feet AGL
Clouds: broken clouds at 6400 feet AGL
Weather: -DZ  (light drizzle)

METAR text: ENAN 172120Z 20002KT CAVOK 13/10 Q0998
Conditions at: ENAN (ANDOYA/ANDENES(A, NO) observed 2120 UTC 17 August 2019
Temperature: 13.0°C (55°F)
Dewpoint: 10.0°C (50°F) [RH = 82%]
Pressure (altimeter): 29.47 inches Hg (998.0 mb)
Winds: from the SSW (200 degrees) at 2 MPH (2 knots; 1.0 m/s)
Visibility: 6 or more miles (10+ km)
Ceiling: ceiling and visibility are OK
Clouds: unknown
Weather: no significant weather observed at this time

METAR text: ENAN 172050Z VRB03KT 9999 FEW045 13/10 Q0998
Conditions at: ENAN (ANDOYA/ANDENES(A, NO) observed 2050 UTC 17 August 2019
Temperature: 13.0°C (55°F)
Dewpoint: 10.0°C (50°F) [RH = 82%]
Pressure (altimeter): 29.47 inches Hg (998.0 mb)
Winds: variable direction winds at 3 MPH (3 knots; 1.5 m/s)
Visibility: 6 or more miles (10+ km)
Ceiling: at least 12,000 feet AGL
Clouds: few clouds at 4500 feet AGL
Weather: no significant weather observed at this time

METAR text: ENAN 172020Z 08005KT 9999 FEW045 13/10 Q0999
Conditions at: ENAN (ANDOYA/ANDENES(A, NO) observed 2020 UTC 17 August 2019
Temperature: 13.0°C (55°F)
Dewpoint: 10.0°C (50°F) [RH = 82%]
Pressure (altimeter): 29.50 inches Hg (999.0 mb)
Winds: from the E (80 degrees) at 6 MPH (5 knots; 2.6 m/s)
Visibility: 6 or more miles (10+ km)
Ceiling: at least 12,000 feet AGL
Clouds: few clouds at 4500 feet AGL
Weather: no significant weather observed at this time

METAR text: ENAN 171950Z AUTO 07005KT 9999 FEW059/// BKN110/// 13/10 Q0999
Conditions at: ENAN (ANDOYA/ANDENES(A, NO) observed 1950 UTC 17 August 2019
Temperature: 13.0°C (55°F)
Dewpoint: 10.0°C (50°F) [RH = 82%]
Pressure (altimeter): 29.50 inches Hg (999.0 mb)
Winds: from the ENE (70 degrees) at 6 MPH (5 knots; 2.6 m/s)
Visibility: 6 or more miles (10+ km)
Ceiling: 11000 feet AGL
Clouds: few clouds at 5900 feet AGL
broken clouds at 11000 feet AGL
Weather: no significant weather observed at this time

METAR text: ENAN 171920Z AUTO 07008KT 9999 BKN076/// BKN100/// 13/10 Q0999
Conditions at: ENAN (ANDOYA/ANDENES(A, NO) observed 1920 UTC 17 August 2019
Temperature: 13.0°C (55°F)
Dewpoint: 10.0°C (50°F) [RH = 82%]
Pressure (altimeter): 29.50 inches Hg (999.0 mb)
Winds: from the ENE (70 degrees) at 9 MPH (8 knots; 4.1 m/s)
Visibility: 6 or more miles (10+ km)
Ceiling: 7600 feet AGL
Clouds: broken clouds at 7600 feet AGL
broken clouds at 10000 feet AGL
Weather: no significant weather observed at this time

METAR text: ENAN 171850Z AUTO 06009KT 9999 FEW082/// OVC100/// 13/10 Q0999
Conditions at: ENAN (ANDOYA/ANDENES(A, NO) observed 1850 UTC 17 August 2019
Temperature: 13.0°C (55°F)
Dewpoint: 10.0°C (50°F) [RH = 82%]
Pressure (altimeter): 29.50 inches Hg (999.0 mb)
Winds: from the ENE (60 degrees) at 10 MPH (9 knots; 4.6 m/s)
Visibility: 6 or more miles (10+ km)
Ceiling: 10000 feet AGL
Clouds: few clouds at 8200 feet AGL
overcast cloud deck at 10000 feet AGL
Weather: no significant weather observed at this time

METAR text: ENAN 171820Z AUTO 06010KT 9999 OVC088/// 13/10 Q1000
Conditions at: ENAN (ANDOYA/ANDENES(A, NO) observed 1820 UTC 17 August 2019
Temperature: 13.0°C (55°F)
Dewpoint: 10.0°C (50°F) [RH = 82%]
Pressure (altimeter): 29.53 inches Hg (1000.0 mb)
Winds: from the ENE (60 degrees) at 12 MPH (10 knots; 5.1 m/s)
Visibility: 6 or more miles (10+ km)
Ceiling: 8800 feet AGL
Clouds: overcast cloud deck at 8800 feet AGL
Weather: no significant weather observed at this time

METAR text: ENAN 171750Z AUTO 05008KT 9999 FEW080/// BKN100/// BKN130/// 13/10 Q1000
Conditions at: ENAN (ANDOYA/ANDENES(A, NO) observed 1750 UTC 17 August 2019
Temperature: 13.0°C (55°F)
Dewpoint: 10.0°C (50°F) [RH = 82%]
Pressure (altimeter): 29.53 inches Hg (1000.0 mb)
Winds: from the NE (50 degrees) at 9 MPH (8 knots; 4.1 m/s)
Visibility: 6 or more miles (10+ km)
Ceiling: 10000 feet AGL
Clouds: few clouds at 8000 feet AGL
broken clouds at 10000 feet AGL
broken clouds at 13000 feet AGL
Weather: no significant weather observed at this time

METAR text: ENAN 171720Z AUTO 05006KT 9999 BKN057/// OVC120/// 13/10 Q1000
Conditions at: ENAN (ANDOYA/ANDENES(A, NO) observed 1720 UTC 17 August 2019
Temperature: 13.0°C (55°F)
Dewpoint: 10.0°C (50°F) [RH = 82%]
Pressure (altimeter): 29.53 inches Hg (1000.0 mb)
Winds: from the NE (50 degrees) at 7 MPH (6 knots; 3.1 m/s)
Visibility: 6 or more miles (10+ km)
Ceiling: 5700 feet AGL
Clouds: broken clouds at 5700 feet AGL
overcast cloud deck at 12000 feet AGL
Weather: no significant weather observed at this time

METAR text: ENAN 171650Z AUTO 06008KT 9999 FEW074/// BKN110/// 13/10 Q1000
Conditions at: ENAN (ANDOYA/ANDENES(A, NO) observed 1650 UTC 17 August 2019
Temperature: 13.0°C (55°F)
Dewpoint: 10.0°C (50°F) [RH = 82%]
Pressure (altimeter): 29.53 inches Hg (1000.0 mb)
Winds: from the ENE (60 degrees) at 9 MPH (8 knots; 4.1 m/s)
Visibility: 6 or more miles (10+ km)
Ceiling: 11000 feet AGL
Clouds: few clouds at 7400 feet AGL
broken clouds at 11000 feet AGL
Weather: no significant weather observed at this time

METAR text: ENAN 171620Z AUTO 06009KT 9999 SCT076/// BKN120/// 14/10 Q1001
Conditions at: ENAN (ANDOYA/ANDENES(A, NO) observed 1620 UTC 17 August 2019
Temperature: 14.0°C (57°F)
Dewpoint: 10.0°C (50°F) [RH = 77%]
Pressure (altimeter): 29.56 inches Hg (1001.0 mb)
Winds: from the ENE (60 degrees) at 10 MPH (9 knots; 4.6 m/s)
Visibility: 6 or more miles (10+ km)
Ceiling: 12000 feet AGL
Clouds: scattered clouds at 7600 feet AGL
broken clouds at 12000 feet AGL
Weather: no significant weather observed at this time

Forecast for: ENAN (ANDOYA/ANDENES(A, NO)
Text: TAF ENAN 1900/1924 23008KT 9999 FEW008 BKN025
Forecast period: 0000 to 0500 UTC 19 August 2019
Forecast type: FROM: standard forecast or significant change
Winds: from the SW (230 degrees) at 9 MPH (8 knots; 4.1 m/s)
Visibility: 6 or more miles 10+ km)
Ceiling: 2500 feet AGL
Clouds: few clouds at 800 feet AGL
broken clouds at 2500 feet AGL
Weather: no significant weather forecast for this period
Text: PROB30
Forecast period: 0000 to 0400 UTC 19 August 2019
Forecast type: TEMPORARY: The following changes expected for less than half the time period
Visibility: missing
Ceiling: 600 feet AGL
Clouds: broken clouds at 600 feet AGL
Weather: no significant weather forecast for this period
Text: TEMPO 1900/1904 BKN006
Forecast period: 0400 to 1500 UTC 19 August 2019
Forecast type: TEMPORARY: The following changes expected for less than half the time period
Visibility: 1.24 miles (2.00 km)
Ceiling: 400 feet AGL
Clouds: broken clouds at 400 feet AGL
Weather: BR  (mist)
Text: PROB40
Forecast period: 0500 to 1000 UTC 19 August 2019
Forecast type: BECOMING: Conditions expected to become as follows by 0900 UTC 19 August 2019
Winds: from the NE (40 degrees) at 17 MPH (15 knots; 7.7 m/s)
Visibility: 6 or more miles 10+ km)
Ceiling: 2500 feet AGL
Clouds: few clouds at 800 feet AGL
broken clouds at 2500 feet AGL
Weather: no significant weather forecast for this period
Text: TEMPO 1904/1915 2000 BR BKN004
Forecast period: 1000 to 1600 UTC 19 August 2019
Forecast type: BECOMING: Conditions expected to become as follows by 1200 UTC 19 August 2019
Winds: from the NE (40 degrees) at 17 MPH (15 knots; 7.7 m/s)
Visibility: 6 or more miles 10+ km)
Ceiling: 600 feet AGL
Clouds: broken clouds at 600 feet AGL
Weather: no significant weather forecast for this period
Text: BECMG 1905/1909 04015KT
Forecast period: 1500 to 2300 UTC 19 August 2019
Forecast type: TEMPORARY: The following changes expected for less than half the time period
Visibility: 2.49 miles (4.01 km)
Ceiling: unknown
Clouds: missing
Weather: RA  (moderate rain)
Text: BECMG 1910/1912 BKN006
Forecast period: 1600 UTC 19 August 2019 to 0000 UTC 20 August 2019
Forecast type: BECOMING: Conditions expected to become as follows by 1900 UTC 19 August 2019
Winds: from the NNW (340 degrees) at 17 MPH (15 knots; 7.7 m/s)
Visibility: 6 or more miles 10+ km)
Ceiling: 600 feet AGL
Clouds: broken clouds at 600 feet AGL
Weather: no significant weather forecast for this period